createdAt,value
2018-12-21T00:00:17.335Z,56.10
2018-12-21T00:02:56.027Z,56.10
2018-12-21T00:05:33.309Z,56.00
2018-12-21T00:08:10.532Z,56.00
2018-12-21T00:10:53.709Z,56.00
2018-12-21T00:13:36.629Z,56.00
2018-12-21T00:16:36.626Z,56.60
2018-12-21T00:39:36.766Z,55.90
2018-12-21T00:42:18.276Z,55.70
2018-12-21T00:45:09.856Z,55.70
2018-12-21T00:47:47.413Z,55.90
2018-12-21T00:53:28.989Z,56.10
2018-12-21T00:56:08.367Z,56.10
2018-12-21T00:58:49.016Z,56.20
2018-12-21T01:01:35.472Z,56.20
2018-12-21T01:04:17.340Z,56.20
2018-12-21T01:06:55.549Z,56.30
2018-12-21T01:09:30.775Z,56.20
2018-12-21T01:12:10.136Z,56.30
2018-12-21T01:14:45.440Z,56.20
2018-12-21T01:17:23.656Z,56.30
2018-12-21T01:20:03.847Z,56.30
2018-12-21T01:22:41.214Z,56.30
2018-12-21T01:25:18.003Z,56.30
2018-12-21T01:27:56.567Z,56.30
2018-12-21T01:30:32.772Z,56.20
2018-12-21T01:33:09.611Z,56.30
2018-12-21T01:35:47.851Z,56.30
2018-12-21T01:38:28.490Z,56.20
2018-12-21T01:41:08.294Z,56.20
2018-12-21T01:43:49.049Z,56.80
2018-12-21T01:46:29.945Z,56.30
2018-12-21T01:49:09.317Z,56.30
2018-12-21T01:51:47.199Z,56.30
2018-12-21T01:54:21.129Z,56.30
2018-12-21T01:56:58.534Z,56.30
2018-12-21T01:59:37.908Z,56.30
2018-12-21T02:02:13.212Z,56.30
2018-12-21T02:04:53.407Z,56.20
2018-12-21T02:07:43.755Z,56.10
2018-12-21T02:10:23.768Z,56.10
2018-12-21T02:13:04.614Z,56.10
2018-12-21T02:15:47.840Z,56.10
2018-12-21T02:18:31.063Z,56.10
2018-12-21T02:21:07.038Z,56.20
2018-12-21T02:23:42.917Z,56.20
2018-12-21T02:26:22.076Z,56.20
2018-12-21T02:28:58.368Z,56.20
2018-12-21T02:31:33.535Z,56.20
2018-12-21T02:34:13.777Z,56.20
2018-12-21T02:36:50.518Z,56.20
2018-12-21T02:39:26.727Z,56.20
2018-12-21T02:42:03.625Z,56.30
2018-12-21T02:44:38.371Z,56.30
2018-12-21T02:47:18.373Z,56.30
2018-12-21T02:49:54.506Z,56.30
2018-12-21T02:52:30.871Z,56.30
2018-12-21T02:55:07.784Z,56.30
2018-12-21T02:57:46.135Z,56.30
2018-12-21T03:00:21.444Z,56.30
2018-12-21T03:02:59.473Z,56.20
2018-12-21T03:05:36.491Z,56.20
2018-12-21T03:08:16.049Z,56.20
2018-12-21T04:10:02.441Z,56.10
2018-12-21T04:12:46.237Z,56.10
2018-12-21T04:15:27.292Z,56.10
2018-12-21T04:18:05.943Z,56.10
2018-12-21T04:20:43.192Z,56.10
2018-12-21T04:23:18.047Z,56.10
2018-12-21T04:25:53.068Z,56.10
2018-12-21T04:28:28.020Z,56.20
2018-12-21T04:31:02.771Z,56.20
2018-12-21T04:33:37.654Z,56.30
2018-12-21T04:36:12.150Z,56.30
2018-12-21T04:38:46.606Z,56.30
2018-12-21T04:41:21.075Z,56.30
2018-12-21T04:43:55.497Z,57.20
2018-12-21T04:46:29.935Z,56.90
2018-12-21T04:49:04.428Z,56.80
2018-12-21T04:51:38.867Z,56.60
2018-12-21T04:54:13.549Z,56.60
2018-12-21T04:56:47.999Z,56.50
2018-12-21T04:59:22.402Z,56.40
2018-12-21T05:01:56.819Z,56.40
2018-12-21T05:04:31.285Z,56.40
2018-12-21T05:07:12.294Z,56.30
2018-12-21T05:09:42.098Z,56.40
2018-12-21T05:12:16.556Z,56.40
2018-12-21T05:14:50.974Z,56.40
2018-12-21T05:17:25.465Z,56.40
2018-12-21T05:20:00.656Z,56.40
2018-12-21T05:22:35.143Z,56.40
2018-12-21T05:25:09.637Z,56.40
2018-12-21T05:27:44.153Z,56.40
2018-12-21T05:30:18.680Z,56.40
2018-12-21T05:32:53.024Z,56.40
2018-12-21T05:35:27.439Z,56.50
2018-12-21T05:38:01.897Z,56.30
2018-12-21T05:40:36.268Z,57.00
2018-12-21T05:43:10.702Z,56.30
2018-12-21T05:45:45.131Z,56.40
2018-12-21T05:48:19.510Z,56.30
2018-12-21T05:50:54.027Z,56.40
2018-12-21T05:53:28.428Z,56.30
2018-12-21T05:56:02.851Z,56.40
2018-12-21T05:58:37.172Z,56.30
2018-12-21T06:01:11.580Z,56.40
2018-12-21T06:03:45.988Z,56.30
2018-12-21T06:06:20.308Z,56.30
2018-12-21T06:08:54.750Z,56.30
2018-12-21T06:11:29.099Z,56.40
2018-12-21T06:14:03.715Z,56.30
2018-12-21T06:16:38.178Z,56.50
2018-12-21T06:19:12.521Z,56.40
2018-12-21T06:21:46.907Z,56.30
2018-12-21T06:24:21.520Z,56.40
2018-12-21T06:26:55.925Z,56.40
2018-12-21T06:29:30.278Z,56.40
2018-12-21T06:32:04.668Z,56.50
2018-12-21T06:34:39.038Z,56.30
2018-12-21T06:37:13.482Z,56.40
2018-12-21T06:39:47.923Z,56.50
2018-12-21T06:42:22.322Z,56.50
2018-12-21T06:44:56.838Z,56.50
2018-12-21T06:47:31.374Z,56.50
2018-12-21T06:50:06.516Z,56.60
2018-12-21T06:52:41.173Z,56.60
2018-12-21T06:55:15.594Z,56.50
2018-12-21T06:57:49.988Z,56.50
2018-12-21T07:00:24.512Z,56.50
2018-12-21T07:02:59.144Z,56.50
2018-12-21T07:05:33.773Z,56.80
2018-12-21T07:08:08.416Z,56.50
2018-12-21T07:10:42.932Z,56.50
2018-12-21T07:13:17.568Z,56.50
2018-12-21T07:15:52.014Z,56.50
2018-12-21T07:18:26.552Z,56.50
2018-12-21T07:21:01.130Z,56.50
2018-12-21T07:23:42.400Z,56.50
2018-12-21T07:26:16.818Z,56.50
2018-12-21T07:28:51.258Z,56.40
2018-12-21T07:31:25.692Z,56.30
2018-12-21T07:34:00.169Z,56.30
2018-12-21T07:36:35.784Z,56.30
2018-12-21T07:41:56.196Z,56.30
2018-12-21T07:44:30.648Z,56.30
2018-12-21T07:47:05.022Z,56.40
2018-12-21T07:49:39.339Z,56.40
2018-12-21T07:52:13.693Z,56.50
2018-12-21T07:54:48.027Z,56.50
2018-12-21T07:57:22.320Z,56.50
2018-12-21T07:59:56.689Z,56.50
2018-12-21T08:02:31.052Z,56.60
2018-12-21T08:05:05.869Z,56.50
2018-12-21T08:07:40.308Z,56.60
2018-12-21T08:10:18.469Z,56.60
2018-12-21T08:12:52.826Z,56.50
2018-12-21T08:15:27.242Z,56.50
2018-12-21T08:18:01.682Z,56.50
2018-12-21T08:20:36.085Z,56.50
2018-12-21T08:23:10.633Z,56.50
2018-12-21T08:25:45.196Z,57.00
2018-12-21T08:28:19.721Z,56.50
2018-12-21T08:30:54.217Z,56.50
2018-12-21T08:33:28.699Z,56.60
2018-12-21T08:36:03.125Z,56.60
2018-12-21T08:38:37.552Z,56.70
2018-12-21T08:41:11.992Z,56.70
2018-12-21T08:43:46.464Z,56.70
2018-12-21T08:46:20.877Z,56.80
2018-12-21T08:48:55.318Z,56.80
2018-12-21T08:51:29.805Z,56.60
2018-12-21T08:54:04.280Z,56.80
2018-12-21T08:56:38.643Z,57.00
2018-12-21T08:59:13.218Z,56.70
2018-12-21T09:01:47.708Z,56.70
2018-12-21T09:04:22.245Z,56.70
2018-12-21T09:06:56.772Z,56.70
2018-12-21T09:09:31.344Z,57.20
2018-12-21T09:12:05.846Z,56.70
2018-12-21T09:14:40.432Z,56.70
2018-12-21T09:17:15.086Z,56.60
2018-12-21T09:19:50.092Z,56.60
2018-12-21T09:22:24.524Z,56.50
2018-12-21T09:24:59.182Z,56.50
2018-12-21T09:27:38.005Z,56.40
2018-12-21T09:30:17.603Z,56.50
2018-12-21T09:32:53.035Z,56.40
2018-12-21T09:35:27.836Z,56.50
2018-12-21T09:41:14.400Z,56.40
2018-12-21T09:43:49.278Z,56.30
2018-12-21T09:46:25.829Z,56.20
2018-12-21T09:49:03.693Z,56.20
2018-12-21T09:51:38.455Z,56.70
2018-12-21T09:54:13.157Z,56.60
2018-12-21T09:56:53.723Z,56.70
2018-12-21T09:59:28.436Z,56.70
2018-12-21T10:02:03.160Z,56.70
2018-12-21T10:04:39.611Z,56.80
2018-12-21T10:07:27.552Z,56.80
2018-12-21T10:09:59.678Z,56.80
2018-12-21T10:12:34.442Z,57.00
2018-12-21T10:15:13.049Z,56.80
2018-12-21T10:17:47.848Z,56.80
2018-12-21T10:20:26.544Z,56.90
2018-12-21T10:23:01.246Z,56.90
2018-12-21T10:28:10.735Z,56.80
2018-12-21T10:30:45.694Z,56.60
2018-12-21T10:33:20.349Z,56.70
2018-12-21T10:35:55.355Z,56.50
2018-12-21T10:38:35.233Z,56.50
2018-12-21T10:43:45.079Z,56.50
2018-12-21T10:46:27.973Z,56.50
2018-12-21T10:49:04.481Z,56.40
2018-12-21T10:51:40.791Z,56.30
2018-12-21T10:54:26.726Z,56.30
2018-12-21T10:57:06.539Z,56.20
2018-12-21T10:59:43.475Z,56.10
2018-12-21T11:02:19.741Z,56.10
2018-12-21T11:05:17.921Z,56.10
2018-12-21T11:07:59.075Z,56.00
2018-12-21T11:12:44.060Z,56.00
2018-12-21T11:15:21.411Z,56.00
2018-12-21T11:18:16.686Z,56.30
2018-12-21T11:20:51.318Z,55.90
2018-12-21T11:23:26.052Z,55.90
2018-12-21T11:26:02.491Z,55.80
2018-12-21T11:28:40.909Z,55.80
2018-12-21T11:31:16.521Z,55.70
2018-12-21T11:33:53.240Z,55.80
2018-12-21T11:39:07.873Z,55.60
2018-12-21T11:41:47.943Z,55.60
2018-12-21T11:44:23.753Z,55.50
2018-12-21T11:46:58.540Z,55.50
2018-12-21T11:49:33.294Z,55.40
2018-12-21T11:52:08.573Z,55.40
2018-12-21T11:54:44.601Z,55.10
2018-12-21T11:57:19.408Z,55.10
2018-12-21T11:59:54.148Z,55.20
2018-12-21T12:02:28.972Z,55.30
2018-12-21T12:05:03.673Z,55.20
2018-12-21T12:07:38.416Z,55.30
2018-12-21T12:10:13.295Z,55.30
2018-12-21T12:12:47.953Z,55.30
2018-12-21T12:15:22.789Z,55.20
2018-12-21T12:17:57.378Z,55.10
2018-12-21T12:20:32.000Z,55.10
2018-12-21T12:23:07.678Z,55.10
2018-12-21T12:25:42.523Z,55.10
2018-12-21T12:28:21.317Z,55.00
2018-12-21T13:05:48.036Z,53.00
2018-12-21T13:08:23.444Z,53.20
2018-12-21T13:13:56.728Z,53.60
2018-12-21T13:16:37.703Z,53.70
2018-12-21T13:19:12.045Z,53.80
